This is the latest recevied weather packets stored in our database for station/object N1YZ. If no packets are shown the sender has not sent any weather packets the latest 10 day(s).
| Time | Temp. | Humidity | Pressure | Rain* | Wind** | Luminosity | Snow |
|---|---|---|---|---|---|---|---|
| 1788289557 | 33.89° C | 54% | 1037.8 hPa | 0 mm | - | 79 W/m² | - |
| 1788289255 | 34.44° C | 53% | 1037.9 hPa | 0 mm | - | 106 W/m² | - |
| 1788288954 | 35° C | 52% | 1038.1 hPa | 0 mm | - | 671 W/m² | - |
| 1788288653 | 35° C | 50% | 1038.1 hPa | 0 mm | - | 108 W/m² | - |
| 1788288349 | 35° C | 48% | 1038 hPa | 0 mm | - | 666 W/m² | - |
| 1788288043 | 34.44° C | 52% | 1038.2 hPa | 0 mm | - | 671 W/m² | - |
| 1788287738 | 33.89° C | 54% | 1038.1 hPa | 0 mm | - | 668 W/m² | - |
| 1788287434 | 34.44° C | 52% | 1038.3 hPa | 0 mm | - | 675 W/m² | - |
| 1788287130 | 33.89° C | 54% | 1038.1 hPa | 0 mm | - | 684 W/m² | - |
| 1788286830 | 33.89° C | 56% | 1038.4 hPa | 0 mm | - | 76 W/m² | - |
| 1788286548 | 34.44° C | 53% | 1038.2 hPa | 0 mm | - | 140 W/m² | - |
| 1788286228 | 34.44° C | 54% | 1038.3 hPa | 0 mm | - | 706 W/m² | - |
| 1788285927 | 34.44° C | 51% | 1038.1 hPa | 0 mm | - | 711 W/m² | - |
| 1788285622 | 34.44° C | 56% | 1038.5 hPa | 0 mm | - | 175 W/m² | - |
| 1788285317 | 34.44° C | 53% | 1038.3 hPa | 0 mm | - | 233 W/m² | - |
| 1788285016 | 33.89° C | 54% | 1038.4 hPa | 0 mm | - | 131 W/m² | - |
| 1788284712 | 33.33° C | 58% | 1038.5 hPa | 0 mm | - | 460 W/m² | - |
| 1788284408 | 33.33° C | 59% | 1038.4 hPa | 0 mm | - | 211 W/m² | - |
| 1788284103 | 33.89° C | 56% | 1038.6 hPa | 0 mm | - | 262 W/m² | - |
| 1788283799 | 32.78° C | 57% | 1038.6 hPa | 0 mm | - | 689 W/m² | - |
| 1788283494 | 32.22° C | 58% | 1038.7 hPa | 0 mm | - | 691 W/m² | - |
| 1788283192 | 33.89° C | 57% | 1038.8 hPa | 0 mm | - | 226 W/m² | - |
| 1788282890 | 33.89° C | 53% | 1038.7 hPa | 0 mm | - | 541 W/m² | - |
| 1788282589 | 33.89° C | 60% | 1039 hPa | 0 mm | - | 95 W/m² | - |
| 1788282284 | 33.33° C | 56% | 1038.9 hPa | 0 mm | - | 170 W/m² | - |
* Rain latest hour (hover to see other rain measurements)
** Current wind speed in m/s (hover to see current wind gust speed)